createdAt,value
2018-02-14T00:00:15.427Z,0.97
2018-02-14T00:02:41.620Z,0.95
2018-02-14T00:05:07.789Z,0.92
2018-02-14T00:07:33.951Z,0.94
2018-02-14T00:10:00.111Z,0.95
2018-02-14T00:12:26.347Z,0.93
2018-02-14T00:14:52.546Z,0.95
2018-02-14T00:17:18.710Z,0.97
2018-02-14T00:19:44.956Z,0.95
2018-02-14T00:22:11.186Z,0.95
2018-02-14T00:24:37.352Z,0.90
2018-02-14T00:27:03.484Z,0.92
2018-02-14T00:29:29.656Z,0.88
2018-02-14T00:31:55.851Z,0.83
2018-02-14T00:34:21.994Z,0.83
2018-02-14T00:36:48.157Z,0.82
2018-02-14T00:39:14.361Z,0.84
2018-02-14T00:41:40.561Z,0.85
2018-02-14T00:44:06.819Z,0.86
2018-02-14T00:46:33.930Z,0.88
2018-02-14T00:49:00.101Z,0.86
2018-02-14T00:51:26.330Z,0.87
2018-02-14T00:53:52.481Z,0.88
2018-02-14T00:56:18.650Z,0.88
2018-02-14T00:58:44.875Z,0.95
2018-02-14T01:01:11.071Z,1.00
2018-02-14T01:03:37.241Z,1.05
2018-02-14T01:06:03.445Z,1.06
2018-02-14T01:08:29.563Z,1.09
2018-02-14T01:10:55.775Z,1.07
2018-02-14T01:13:21.979Z,1.04
2018-02-14T01:15:48.178Z,1.04
2018-02-14T01:18:14.312Z,1.01
2018-02-14T01:20:43.503Z,0.99
2018-02-14T01:23:09.727Z,1.06
2018-02-14T01:25:35.963Z,1.09
2018-02-14T01:28:02.120Z,1.15
2018-02-14T01:30:28.269Z,1.18
2018-02-14T01:32:54.492Z,1.21
2018-02-14T01:35:20.642Z,1.21
2018-02-14T01:37:46.792Z,1.20
2018-02-14T01:40:13.005Z,1.21
2018-02-14T01:42:39.252Z,1.19
2018-02-14T01:45:05.437Z,1.18
2018-02-14T01:47:31.632Z,1.15
2018-02-14T01:49:57.805Z,1.22
2018-02-14T01:52:23.979Z,1.18
2018-02-14T01:54:50.173Z,1.20
2018-02-14T01:57:16.343Z,1.18
2018-02-14T01:59:42.472Z,1.15
2018-02-14T02:02:08.692Z,1.11
2018-02-14T02:04:34.868Z,1.09
2018-02-14T02:07:01.045Z,1.02
2018-02-14T02:09:27.260Z,1.00
2018-02-14T02:11:53.562Z,0.98
2018-02-14T02:14:19.752Z,0.88
2018-02-14T02:16:45.978Z,0.88
2018-02-14T02:19:13.065Z,0.86
2018-02-14T02:21:39.283Z,0.80
2018-02-14T02:24:05.488Z,0.75
2018-02-14T02:26:31.664Z,0.68
2018-02-14T02:28:57.815Z,0.69
2018-02-14T02:31:24.045Z,0.67
2018-02-14T02:33:50.180Z,0.66
2018-02-14T02:36:16.339Z,0.61
2018-02-14T02:38:42.545Z,0.57
2018-02-14T02:41:08.756Z,0.50
2018-02-14T02:43:34.952Z,0.48
2018-02-14T02:46:01.199Z,0.44
2018-02-14T02:48:27.433Z,0.44
2018-02-14T02:50:53.645Z,0.42
2018-02-14T02:53:20.861Z,0.40
2018-02-14T02:55:47.052Z,0.40
2018-02-14T02:58:13.243Z,0.39
2018-02-14T03:00:39.457Z,0.30
2018-02-14T03:03:05.879Z,0.27
2018-02-14T03:05:32.087Z,0.25
2018-02-14T03:07:58.236Z,0.23
2018-02-14T03:10:24.388Z,0.22
2018-02-14T03:12:50.641Z,0.24
2018-02-14T03:15:16.791Z,0.23
2018-02-14T03:17:42.886Z,0.22
2018-02-14T03:20:09.016Z,0.19
2018-02-14T03:22:35.182Z,0.21
2018-02-14T03:25:01.273Z,0.19
2018-02-14T03:27:27.383Z,0.22
2018-02-14T03:29:53.566Z,0.23
2018-02-14T03:32:19.714Z,0.24
2018-02-14T03:34:45.887Z,0.27
2018-02-14T03:37:12.055Z,0.27
2018-02-14T03:39:38.605Z,0.25
2018-02-14T03:42:04.778Z,0.27
2018-02-14T03:44:30.898Z,0.25
2018-02-14T03:46:57.033Z,0.23
2018-02-14T03:49:23.183Z,0.22
2018-02-14T03:51:49.356Z,0.23
2018-02-14T03:54:15.513Z,0.26
2018-02-14T03:56:41.697Z,0.24
2018-02-14T03:59:07.875Z,0.24
2018-02-14T04:01:34.032Z,0.22
2018-02-14T04:04:00.219Z,0.20
2018-02-14T04:06:26.440Z,0.19
2018-02-14T04:08:52.612Z,0.18
2018-02-14T04:11:18.780Z,0.16
2018-02-14T04:13:44.887Z,0.13
2018-02-14T04:16:10.971Z,0.15
2018-02-14T04:18:37.123Z,0.12
2018-02-14T04:21:03.245Z,0.10
2018-02-14T04:23:29.440Z,0.14
2018-02-14T04:25:55.550Z,0.14
2018-02-14T04:28:22.687Z,0.15
2018-02-14T04:30:48.882Z,0.20
2018-02-14T04:33:15.062Z,0.28
2018-02-14T04:35:41.172Z,0.33
2018-02-14T04:38:07.305Z,0.42
2018-02-14T04:40:33.444Z,0.50
2018-02-14T04:42:59.588Z,0.55
2018-02-14T04:45:25.700Z,0.57
2018-02-14T04:47:51.833Z,0.64
2018-02-14T04:50:17.990Z,0.66
2018-02-14T04:52:44.161Z,0.73
2018-02-14T04:55:10.306Z,0.77
2018-02-14T04:57:36.407Z,0.82
2018-02-14T05:00:02.608Z,0.86
2018-02-14T05:02:29.090Z,0.88
2018-02-14T05:04:55.206Z,0.89
2018-02-14T05:07:21.313Z,0.93
2018-02-14T05:09:47.452Z,0.92
2018-02-14T05:12:13.624Z,0.94
2018-02-14T05:14:39.718Z,0.97
2018-02-14T05:17:05.880Z,1.01
2018-02-14T05:19:31.985Z,1.01
2018-02-14T05:21:58.148Z,0.99
2018-02-14T05:24:24.280Z,1.00
2018-02-14T05:26:50.380Z,1.02
2018-02-14T05:29:16.535Z,0.95
2018-02-14T05:31:42.679Z,0.99
2018-02-14T05:34:08.785Z,1.00
2018-02-14T05:36:34.910Z,0.95
2018-02-14T05:39:01.064Z,0.88
2018-02-14T05:41:27.178Z,0.81
2018-02-14T05:43:53.338Z,0.76
2018-02-14T05:46:19.463Z,0.69
2018-02-14T05:48:45.586Z,0.64
2018-02-14T05:51:11.745Z,0.59
2018-02-14T05:53:37.924Z,0.54
2018-02-14T05:56:04.042Z,0.53
2018-02-14T05:58:30.242Z,0.49
2018-02-14T06:00:56.324Z,0.51
2018-02-14T06:03:22.533Z,0.50
2018-02-14T06:05:48.669Z,0.46
2018-02-14T06:08:14.781Z,0.48
2018-02-14T06:10:40.874Z,0.47
2018-02-14T06:13:07.035Z,0.47
2018-02-14T06:15:33.128Z,0.48
2018-02-14T06:17:59.231Z,0.47
2018-02-14T06:20:25.378Z,0.47
2018-02-14T06:22:51.518Z,0.44
2018-02-14T06:25:17.642Z,0.44
2018-02-14T06:27:43.752Z,0.44
2018-02-14T06:30:09.944Z,0.44
2018-02-14T06:32:36.094Z,0.46
2018-02-14T06:35:02.192Z,0.47
2018-02-14T06:37:28.333Z,0.50
2018-02-14T06:39:54.448Z,0.47
2018-02-14T06:42:21.377Z,0.47
2018-02-14T06:44:47.478Z,0.46
2018-02-14T06:47:13.619Z,0.45
2018-02-14T06:49:39.744Z,0.48
2018-02-14T06:52:05.897Z,0.49
2018-02-14T06:54:32.015Z,0.51
2018-02-14T06:56:58.145Z,0.58
2018-02-14T06:59:24.312Z,0.64
2018-02-14T07:01:50.419Z,0.69
2018-02-14T07:04:16.566Z,0.77
2018-02-14T07:06:42.730Z,0.83
2018-02-14T07:09:08.878Z,0.92
2018-02-14T07:11:34.979Z,1.02
2018-02-14T07:14:01.129Z,1.06
2018-02-14T07:16:27.408Z,1.15
2018-02-14T07:18:53.546Z,1.20
2018-02-14T07:21:19.678Z,1.27
2018-02-14T07:23:45.836Z,1.32
2018-02-14T07:26:11.969Z,1.34
2018-02-14T07:28:38.126Z,1.41
2018-02-14T07:31:04.303Z,1.45
2018-02-14T07:33:30.518Z,1.45
2018-02-14T07:35:56.667Z,1.48
2018-02-14T07:38:22.806Z,1.50
2018-02-14T07:40:48.990Z,1.51
2018-02-14T07:43:15.147Z,1.55
2018-02-14T07:45:41.327Z,1.52
2018-02-14T07:48:07.507Z,1.50
2018-02-14T07:50:33.680Z,1.56
2018-02-14T07:52:59.852Z,1.63
2018-02-14T07:55:25.993Z,1.67
2018-02-14T07:57:52.167Z,1.68
2018-02-14T08:00:18.305Z,1.70
2018-02-14T08:02:44.491Z,1.71
2018-02-14T08:05:10.614Z,1.75
2018-02-14T08:07:36.743Z,1.79
2018-02-14T08:10:02.906Z,1.82
2018-02-14T08:12:29.080Z,1.83
2018-02-14T08:14:55.196Z,1.91
2018-02-14T08:17:21.365Z,2.01
2018-02-14T08:19:47.545Z,2.07
2018-02-14T08:22:13.649Z,2.15
2018-02-14T08:24:39.797Z,2.32
2018-02-14T08:27:05.922Z,2.33
2018-02-14T08:29:32.092Z,2.33
2018-02-14T08:31:58.268Z,2.24
2018-02-14T08:34:24.464Z,2.23
2018-02-14T08:36:50.564Z,2.22
2018-02-14T08:39:16.689Z,2.22
2018-02-14T08:41:42.826Z,2.22
2018-02-14T08:44:08.999Z,2.26
2018-02-14T08:46:35.148Z,2.34
2018-02-14T08:49:01.351Z,2.55
2018-02-14T08:51:27.518Z,2.90
2018-02-14T08:53:53.686Z,3.52
2018-02-14T08:56:19.849Z,4.30
2018-02-14T08:58:46.004Z,5.27
2018-02-14T09:01:12.128Z,5.36
2018-02-14T09:03:38.288Z,5.05
2018-02-14T09:06:04.415Z,4.56
2018-02-14T09:08:30.538Z,4.39
2018-02-14T09:10:56.645Z,3.93
2018-02-14T09:13:22.812Z,3.91
2018-02-14T09:15:48.922Z,3.74
2018-02-14T09:18:15.041Z,3.69
2018-02-14T09:20:41.395Z,3.76
2018-02-14T09:23:07.558Z,3.76
2018-02-14T09:25:33.720Z,3.76
2018-02-14T09:27:59.883Z,3.79
2018-02-14T09:30:26.033Z,3.65
2018-02-14T09:32:52.187Z,3.60
2018-02-14T09:35:18.328Z,3.59
2018-02-14T09:37:44.516Z,3.61
2018-02-14T09:40:10.673Z,3.52
2018-02-14T09:42:36.817Z,3.55
2018-02-14T09:45:03.011Z,3.65
2018-02-14T09:47:29.167Z,3.76
2018-02-14T09:49:55.326Z,3.83
2018-02-14T09:52:21.470Z,3.95
2018-02-14T09:54:47.602Z,4.05
2018-02-14T09:57:13.759Z,4.07
2018-02-14T09:59:39.924Z,4.07
2018-02-14T10:02:06.062Z,4.04
2018-02-14T10:04:32.197Z,4.08
2018-02-14T10:06:58.421Z,4.08
2018-02-14T10:09:24.713Z,4.01
2018-02-14T10:11:50.843Z,4.17
2018-02-14T10:14:16.979Z,4.22
2018-02-14T10:16:43.137Z,4.16
2018-02-14T10:19:09.269Z,4.10
2018-02-14T10:21:35.400Z,4.23
2018-02-14T10:24:01.608Z,4.33
2018-02-14T10:26:27.717Z,4.41
2018-02-14T10:28:53.921Z,4.46
2018-02-14T10:31:20.032Z,4.54
2018-02-14T10:33:46.233Z,4.60
2018-02-14T10:36:12.363Z,4.58
2018-02-14T10:38:38.540Z,4.63
2018-02-14T10:41:04.669Z,4.70
2018-02-14T10:43:30.860Z,4.83
2018-02-14T10:45:56.979Z,4.91
2018-02-14T10:48:23.100Z,4.88
2018-02-14T10:50:49.259Z,4.86
2018-02-14T10:53:15.427Z,4.90
2018-02-14T10:55:41.552Z,4.95
2018-02-14T10:58:07.727Z,4.96
2018-02-14T11:00:39.875Z,4.99
2018-02-14T11:03:12.136Z,5.02
2018-02-14T11:05:39.405Z,5.08
2018-02-14T11:08:05.668Z,5.17
2018-02-14T11:10:31.817Z,5.28
2018-02-14T11:12:57.944Z,5.37
2018-02-14T11:15:24.085Z,5.45
2018-02-14T11:17:50.245Z,5.43
2018-02-14T11:20:16.384Z,5.47
2018-02-14T11:22:42.495Z,5.51
2018-02-14T11:25:08.695Z,5.60
2018-02-14T11:27:34.843Z,5.64
2018-02-14T11:30:01.127Z,5.60
2018-02-14T11:32:27.277Z,5.56
2018-02-14T11:34:53.701Z,5.63
2018-02-14T11:37:19.798Z,5.73
2018-02-14T11:39:45.962Z,5.72
2018-02-14T11:42:12.080Z,5.77
2018-02-14T11:44:38.265Z,5.78
2018-02-14T11:47:04.383Z,5.86
2018-02-14T11:49:30.491Z,5.94
2018-02-14T11:51:56.641Z,6.02
2018-02-14T11:54:22.819Z,6.07
2018-02-14T11:56:48.943Z,6.10
2018-02-14T11:59:15.111Z,6.14
2018-02-14T12:01:41.239Z,6.26
2018-02-14T12:04:07.388Z,6.30
2018-02-14T12:06:33.546Z,6.35
2018-02-14T12:08:59.684Z,6.40
2018-02-14T12:11:25.861Z,6.32
2018-02-14T12:13:52.058Z,6.40
2018-02-14T12:16:18.189Z,6.40
2018-02-14T12:18:44.285Z,6.43
2018-02-14T12:21:10.408Z,6.56
2018-02-14T12:23:36.545Z,6.60
2018-02-14T12:26:02.736Z,6.66
2018-02-14T12:28:28.912Z,6.70
2018-02-14T12:30:55.165Z,6.73
2018-02-14T12:33:21.394Z,6.77
2018-02-14T12:35:47.631Z,6.90
2018-02-14T12:38:13.768Z,7.03
2018-02-14T12:40:40.037Z,6.99
2018-02-14T12:43:06.310Z,7.03
2018-02-14T12:45:32.754Z,7.01
2018-02-14T12:47:58.972Z,7.02
2018-02-14T12:50:25.220Z,7.13
2018-02-14T12:52:51.472Z,7.14
2018-02-14T12:55:17.686Z,7.17
2018-02-14T12:57:43.848Z,7.12
2018-02-14T13:00:10.056Z,6.99
2018-02-14T13:02:36.496Z,7.09
2018-02-14T13:05:02.701Z,7.08
2018-02-14T13:07:28.873Z,7.15
2018-02-14T13:09:55.096Z,7.22
2018-02-14T13:12:21.385Z,7.30
2018-02-14T13:14:47.643Z,7.33
2018-02-14T13:17:13.898Z,7.28
2018-02-14T13:19:40.103Z,7.22
2018-02-14T13:22:06.285Z,7.15
2018-02-14T13:24:32.534Z,7.15
2018-02-14T13:26:58.743Z,7.12
2018-02-14T13:29:24.980Z,7.03
2018-02-14T13:31:51.122Z,7.12
2018-02-14T13:34:17.330Z,7.16
2018-02-14T13:36:43.490Z,7.11
2018-02-14T13:39:09.670Z,7.15
2018-02-14T13:41:35.976Z,7.02
2018-02-14T13:44:02.222Z,7.04
2018-02-14T13:46:33.787Z,6.95
2018-02-14T13:48:59.995Z,6.92
2018-02-14T13:51:26.221Z,6.87
2018-02-14T13:53:52.417Z,6.91
2018-02-14T13:56:18.693Z,6.84
2018-02-14T13:58:44.922Z,6.91
2018-02-14T14:01:11.092Z,6.94
2018-02-14T14:03:37.321Z,6.97
2018-02-14T14:06:03.572Z,6.94
2018-02-14T14:08:29.796Z,6.93
2018-02-14T14:10:56.029Z,6.96
2018-02-14T14:13:22.213Z,7.01
2018-02-14T14:15:48.476Z,7.08
2018-02-14T14:18:15.943Z,6.91
2018-02-14T14:20:42.195Z,6.87
2018-02-14T14:23:08.411Z,6.80
2018-02-14T14:25:34.655Z,6.67
2018-02-14T14:28:00.827Z,6.62
2018-02-14T14:30:27.244Z,6.58
2018-02-14T14:32:53.392Z,6.58
2018-02-14T14:35:19.709Z,6.60
2018-02-14T14:37:45.913Z,6.55
2018-02-14T14:40:12.098Z,6.59
2018-02-14T14:42:38.571Z,6.57
2018-02-14T14:45:04.833Z,6.70
2018-02-14T14:47:31.024Z,6.71
2018-02-14T14:49:57.188Z,6.79
2018-02-14T14:52:24.286Z,6.76
2018-02-14T14:54:50.512Z,6.76
2018-02-14T14:57:16.788Z,6.74
2018-02-14T14:59:43.027Z,6.74
2018-02-14T15:02:09.176Z,6.67
2018-02-14T15:04:35.456Z,6.73
2018-02-14T15:07:01.666Z,6.67
2018-02-14T15:09:27.858Z,6.66
2018-02-14T15:11:54.105Z,6.61
2018-02-14T15:14:20.351Z,6.62
2018-02-14T15:16:46.614Z,6.52
2018-02-14T15:19:12.773Z,6.46
2018-02-14T15:21:39.021Z,6.49
2018-02-14T15:24:05.184Z,6.42
2018-02-14T15:26:31.398Z,6.37
2018-02-14T15:28:57.650Z,6.31
2018-02-14T15:31:23.824Z,6.29
2018-02-14T15:33:50.089Z,6.28
2018-02-14T15:36:16.335Z,6.22
2018-02-14T15:38:42.519Z,6.22
2018-02-14T15:41:08.673Z,6.19
2018-02-14T15:46:07.955Z,6.10
2018-02-14T15:48:34.268Z,6.09
2018-02-14T15:51:00.510Z,6.05
2018-02-14T15:53:26.677Z,6.04
2018-02-14T15:55:52.899Z,6.00
2018-02-14T15:58:19.052Z,6.01
2018-02-14T16:00:45.264Z,5.98
2018-02-14T16:03:11.503Z,5.96
2018-02-14T16:05:37.741Z,5.93
2018-02-14T16:08:04.005Z,5.93
2018-02-14T16:10:30.298Z,5.89
2018-02-14T16:12:56.526Z,5.91
2018-02-14T16:15:22.770Z,5.86
2018-02-14T16:17:48.960Z,5.83
2018-02-14T16:20:15.115Z,5.85
2018-02-14T16:22:41.326Z,5.88
2018-02-14T16:25:07.532Z,5.87
2018-02-14T16:27:33.754Z,5.85
2018-02-14T16:30:00.036Z,5.83
2018-02-14T16:32:26.200Z,5.84
2018-02-14T16:34:52.413Z,5.84
2018-02-14T16:37:18.908Z,5.82
2018-02-14T16:39:45.073Z,5.79
2018-02-14T16:42:11.266Z,5.81
2018-02-14T16:44:37.536Z,5.79
2018-02-14T16:47:03.760Z,5.81
2018-02-14T16:56:17.128Z,5.73
2018-02-14T16:58:43.361Z,5.74
2018-02-14T17:01:09.596Z,5.72
2018-02-14T17:03:35.847Z,5.69
2018-02-14T17:06:02.282Z,5.69
2018-02-14T17:08:28.451Z,5.70
2018-02-14T17:10:54.709Z,5.67
2018-02-14T17:13:21.031Z,5.67
2018-02-14T17:15:47.284Z,5.65
2018-02-14T17:18:13.510Z,5.66
2018-02-14T17:20:39.798Z,5.65
2018-02-14T17:23:05.996Z,5.63
2018-02-14T17:25:32.270Z,5.62
2018-02-14T17:27:58.436Z,5.58
2018-02-14T17:30:24.706Z,5.58
2018-02-14T17:32:50.903Z,5.56
2018-02-14T17:35:17.230Z,5.55
2018-02-14T17:37:43.480Z,5.53
2018-02-14T17:40:09.658Z,5.52
2018-02-14T17:42:35.807Z,5.54
2018-02-14T17:45:02.055Z,5.53
2018-02-14T17:47:28.237Z,5.55
2018-02-14T17:49:54.384Z,5.51
2018-02-14T17:52:20.643Z,5.50
2018-02-14T17:54:46.920Z,5.51
2018-02-14T17:57:13.174Z,5.50
2018-02-14T17:59:39.401Z,5.47
2018-02-14T18:02:05.629Z,5.45
2018-02-14T18:04:31.908Z,5.45
2018-02-14T18:06:58.122Z,5.44
2018-02-14T18:09:24.354Z,5.44
2018-02-14T18:11:50.534Z,5.44
2018-02-14T18:14:16.794Z,5.45
2018-02-14T18:16:43.018Z,5.45
2018-02-14T18:19:09.284Z,5.46
2018-02-14T18:21:35.432Z,5.46
2018-02-14T18:24:01.635Z,5.45
2018-02-14T18:26:27.838Z,5.45
2018-02-14T18:28:54.060Z,5.48
2018-02-14T18:31:20.282Z,5.48
2018-02-14T18:33:46.560Z,5.48
2018-02-14T18:36:12.740Z,5.51
2018-02-14T18:38:38.934Z,5.50
2018-02-14T18:41:05.108Z,5.46
2018-02-14T18:43:31.363Z,5.44
2018-02-14T18:45:57.581Z,5.50
2018-02-14T18:48:23.763Z,5.47
2018-02-14T18:50:49.992Z,5.48
2018-02-14T18:53:16.255Z,5.49
2018-02-14T18:55:42.491Z,5.49
2018-02-14T18:58:08.746Z,5.48
2018-02-14T19:00:34.962Z,5.47
2018-02-14T19:03:01.162Z,5.48
2018-02-14T19:05:27.381Z,5.46
2018-02-14T19:07:53.595Z,5.44
2018-02-14T19:10:19.774Z,5.44
2018-02-14T19:12:45.960Z,5.43
2018-02-14T19:15:12.194Z,5.44
2018-02-14T19:17:38.441Z,5.45
2018-02-14T19:20:04.642Z,5.44
2018-02-14T19:22:30.880Z,5.43
2018-02-14T19:24:57.057Z,5.41
2018-02-14T19:27:23.276Z,5.45
2018-02-14T19:29:49.491Z,5.40
2018-02-14T19:32:15.873Z,5.39
2018-02-14T19:34:42.178Z,5.40
2018-02-14T19:37:08.392Z,5.37
2018-02-14T19:39:34.523Z,5.35
2018-02-14T19:42:00.710Z,5.37
2018-02-14T19:44:27.958Z,5.35
2018-02-14T19:46:54.179Z,5.35
2018-02-14T19:49:20.347Z,5.32
2018-02-14T19:51:48.209Z,5.33
2018-02-14T19:54:14.529Z,5.33
2018-02-14T19:56:40.799Z,5.28
2018-02-14T19:59:07.004Z,5.28
2018-02-14T20:01:33.185Z,5.23
2018-02-14T20:03:59.404Z,5.16
2018-02-14T20:06:25.779Z,5.11
2018-02-14T20:08:51.958Z,5.04
2018-02-14T20:11:18.178Z,4.98
2018-02-14T20:13:44.385Z,4.92
2018-02-14T20:16:10.648Z,4.86
2018-02-14T20:18:36.908Z,4.81
2018-02-14T20:21:03.159Z,4.76
2018-02-14T20:23:29.400Z,4.71
2018-02-14T20:25:55.628Z,4.71
2018-02-14T20:28:21.825Z,4.67
2018-02-14T20:30:48.044Z,4.64
2018-02-14T20:33:14.249Z,4.66
2018-02-14T20:35:40.426Z,4.66
2018-02-14T20:38:06.683Z,4.67
2018-02-14T20:40:32.880Z,4.66
2018-02-14T20:42:59.076Z,4.67
2018-02-14T20:45:25.289Z,4.70
2018-02-14T20:47:51.509Z,4.71
2018-02-14T20:50:17.684Z,4.71
2018-02-14T20:52:43.979Z,4.73
2018-02-14T20:55:10.143Z,4.73
2018-02-14T20:57:36.364Z,4.76
2018-02-14T21:00:02.676Z,4.77
2018-02-14T21:02:28.862Z,4.78
2018-02-14T21:04:55.042Z,4.81
2018-02-14T21:07:21.259Z,4.84
2018-02-14T21:09:47.534Z,4.86
2018-02-14T21:12:13.701Z,4.85
2018-02-14T21:14:39.859Z,4.86
2018-02-14T21:17:06.111Z,4.87
2018-02-14T21:19:32.303Z,4.87
2018-02-14T21:21:58.529Z,4.89
2018-02-14T21:24:24.804Z,4.89
2018-02-14T21:26:50.998Z,4.89
2018-02-14T21:29:17.200Z,4.90
2018-02-14T21:31:43.424Z,4.90
2018-02-14T21:34:09.574Z,4.89
2018-02-14T21:36:35.806Z,4.87
2018-02-14T21:39:02.042Z,4.86
2018-02-14T21:41:28.202Z,4.84
2018-02-14T21:43:54.366Z,4.79
2018-02-14T21:46:20.555Z,4.76
2018-02-14T21:48:47.059Z,4.74
2018-02-14T21:51:14.094Z,4.72
2018-02-14T21:53:40.262Z,4.70
2018-02-14T21:56:06.453Z,4.66
2018-02-14T21:58:32.670Z,4.63
2018-02-14T22:00:58.876Z,4.63
2018-02-14T22:03:25.035Z,4.62
2018-02-14T22:05:52.067Z,4.58
2018-02-14T22:08:18.260Z,4.54
2018-02-14T22:10:44.447Z,4.47
2018-02-14T22:13:10.625Z,4.45
2018-02-14T22:15:36.830Z,4.40
2018-02-14T22:18:03.063Z,4.37
2018-02-14T22:20:29.243Z,4.32
2018-02-14T22:22:55.398Z,4.27
2018-02-14T22:25:21.620Z,4.25
2018-02-14T22:27:47.853Z,4.22
2018-02-14T22:30:14.097Z,4.18
2018-02-14T22:32:40.262Z,4.16
2018-02-14T22:35:06.474Z,4.14
2018-02-14T22:37:32.745Z,4.10
2018-02-14T22:39:58.919Z,4.10
2018-02-14T22:42:25.134Z,4.06
2018-02-14T22:44:51.311Z,4.07
2018-02-14T22:47:17.591Z,4.07
2018-02-14T22:49:43.765Z,4.06
2018-02-14T22:52:10.007Z,4.04
2018-02-14T22:54:36.173Z,3.99
2018-02-14T22:57:02.474Z,4.01
2018-02-14T22:59:28.681Z,4.01
2018-02-14T23:01:55.894Z,3.98
2018-02-14T23:04:22.086Z,3.93
2018-02-14T23:06:48.316Z,3.92
2018-02-14T23:09:14.502Z,3.92
2018-02-14T23:11:40.818Z,3.91
2018-02-14T23:14:07.317Z,3.91
2018-02-14T23:16:33.490Z,3.91
2018-02-14T23:18:59.713Z,3.91
2018-02-14T23:21:25.963Z,3.95
2018-02-14T23:23:52.118Z,3.98
2018-02-14T23:26:18.377Z,3.96
2018-02-14T23:28:44.609Z,3.96
2018-02-14T23:31:10.817Z,3.96
2018-02-14T23:33:36.994Z,3.98
2018-02-14T23:36:03.196Z,3.97
2018-02-14T23:38:29.405Z,3.99
2018-02-14T23:40:55.613Z,4.00
2018-02-14T23:43:21.774Z,4.01
2018-02-14T23:45:47.964Z,4.01
2018-02-14T23:48:14.150Z,4.01
2018-02-14T23:50:40.415Z,4.01
2018-02-14T23:53:06.607Z,4.01
2018-02-14T23:55:32.762Z,4.00
2018-02-14T23:57:58.941Z,3.98
